createdAt,value
2023-04-18T00:00:04.483Z,4.38
2023-04-18T00:00:35.877Z,4.72
2023-04-18T00:01:07.231Z,4.90
2023-04-18T00:01:38.845Z,3.90
2023-04-18T00:02:10.291Z,4.05
2023-04-18T00:02:41.848Z,4.20
2023-04-18T00:03:13.588Z,4.35
2023-04-18T00:03:45.350Z,4.35
2023-04-18T00:04:17.032Z,4.05
2023-04-18T00:04:48.891Z,4.35
2023-04-18T00:05:21.062Z,4.45
2023-04-18T00:05:52.557Z,4.18
2023-04-18T00:06:23.902Z,4.38
2023-04-18T00:06:55.225Z,3.38
2023-04-18T00:07:26.610Z,4.45
2023-04-18T00:07:57.964Z,4.15
2023-04-18T00:08:29.320Z,4.35
2023-04-18T00:09:00.745Z,3.70
2023-04-18T00:09:32.176Z,3.95
2023-04-18T00:10:06.762Z,4.40
2023-04-18T00:10:38.126Z,4.00
2023-04-18T00:11:09.495Z,3.97
2023-04-18T00:11:40.893Z,4.22
2023-04-18T00:12:12.287Z,4.68
2023-04-18T00:12:43.637Z,4.53
2023-04-18T00:13:15.022Z,4.63
2023-04-18T00:13:46.354Z,5.50
2023-04-18T00:14:17.727Z,3.70
2023-04-18T00:14:49.145Z,3.92
2023-04-18T00:15:20.543Z,4.18
2023-04-18T00:15:51.905Z,4.53
2023-04-18T00:16:23.797Z,3.95
2023-04-18T00:16:55.254Z,4.07
2023-04-18T00:17:27.048Z,3.97
2023-04-18T00:17:58.497Z,4.10
2023-04-18T00:18:29.990Z,3.80
2023-04-18T00:19:01.372Z,4.03
2023-04-18T00:19:32.775Z,4.05
2023-04-18T00:20:04.758Z,4.50
2023-04-18T00:20:36.183Z,4.70
2023-04-18T00:21:07.793Z,3.95
2023-04-18T00:21:39.180Z,3.85
2023-04-18T00:22:10.945Z,4.00
2023-04-18T00:22:42.444Z,4.22
2023-04-18T00:23:14.230Z,4.03
2023-04-18T00:23:45.799Z,4.32
2023-04-18T00:24:17.172Z,4.00
2023-04-18T00:24:48.873Z,5.18
2023-04-18T00:25:20.380Z,4.53
2023-04-18T00:25:51.712Z,4.63
2023-04-18T00:26:23.070Z,4.30
2023-04-18T00:26:54.423Z,4.07
2023-04-18T00:27:25.826Z,4.03
2023-04-18T00:27:57.865Z,4.00
2023-04-18T00:28:29.216Z,4.77
2023-04-18T00:29:02.384Z,5.22
2023-04-18T00:29:33.721Z,4.40
2023-04-18T00:30:05.775Z,4.38
2023-04-18T00:30:37.261Z,4.05
2023-04-18T00:31:08.669Z,4.07
2023-04-18T00:31:40.122Z,4.40
2023-04-18T00:32:11.501Z,3.38
2023-04-18T00:32:43.029Z,4.22
2023-04-18T00:33:14.536Z,5.28
2023-04-18T00:33:45.884Z,4.22
2023-04-18T00:34:17.241Z,4.40
2023-04-18T00:34:48.602Z,4.28
2023-04-18T00:35:19.945Z,4.33
2023-04-18T00:35:51.278Z,3.83
2023-04-18T00:36:22.612Z,4.57
2023-04-18T00:36:54.040Z,4.15
2023-04-18T00:37:25.454Z,4.63
2023-04-18T00:37:56.826Z,4.75
2023-04-18T00:38:28.212Z,4.10
2023-04-18T00:38:59.592Z,4.60
2023-04-18T00:39:30.988Z,4.55
2023-04-18T00:40:02.336Z,4.10
2023-04-18T00:40:33.868Z,4.47
2023-04-18T00:41:05.196Z,4.60
2023-04-18T00:41:36.573Z,4.40
2023-04-18T00:42:07.954Z,4.65
2023-04-18T00:42:39.321Z,4.53
2023-04-18T00:43:13.311Z,4.68
2023-04-18T00:43:44.684Z,4.90
2023-04-18T00:44:16.283Z,4.03
2023-04-18T00:44:48.343Z,4.10
2023-04-18T00:45:19.730Z,4.97
2023-04-18T00:45:51.179Z,5.05
2023-04-18T00:46:22.573Z,4.47
2023-04-18T00:46:54.104Z,4.55
2023-04-18T00:47:25.517Z,5.03
2023-04-18T00:47:56.949Z,4.90
2023-04-18T00:48:29.230Z,4.43
2023-04-18T00:49:00.704Z,4.20
2023-04-18T00:49:32.295Z,4.50
2023-04-18T00:50:03.832Z,4.43
2023-04-18T00:50:36.515Z,4.82
2023-04-18T00:51:08.647Z,4.72
2023-04-18T00:51:40.392Z,4.57
2023-04-18T00:52:12.062Z,4.40
2023-04-18T00:52:43.873Z,4.00
2023-04-18T00:53:15.429Z,4.90
2023-04-18T00:53:46.843Z,4.32
2023-04-18T00:54:18.570Z,4.38
2023-04-18T00:54:50.231Z,4.40
2023-04-18T00:55:21.780Z,4.28
2023-04-18T00:55:53.350Z,4.32
2023-04-18T00:56:24.748Z,3.97
2023-04-18T00:56:56.253Z,3.88
2023-04-18T00:57:27.708Z,4.00
2023-04-18T00:57:59.144Z,4.60
2023-04-18T00:58:31.465Z,4.57
2023-04-18T00:59:03.000Z,4.03
2023-04-18T00:59:34.649Z,4.80
2023-04-18T01:00:06.489Z,4.45
2023-04-18T01:00:37.884Z,4.78
2023-04-18T01:01:09.436Z,4.43
2023-04-18T01:01:40.907Z,3.95
2023-04-18T01:02:12.318Z,4.60
2023-04-18T01:02:43.797Z,4.55
2023-04-18T01:03:15.389Z,4.60
2023-04-18T01:03:46.976Z,4.32
2023-04-18T01:04:18.491Z,4.53
2023-04-18T01:04:50.208Z,4.25
2023-04-18T01:05:22.398Z,4.18
2023-04-18T01:05:54.389Z,4.38
2023-04-18T01:06:26.294Z,4.68
2023-04-18T01:06:57.906Z,5.37
2023-04-18T01:07:32.379Z,4.40
2023-04-18T01:08:03.740Z,4.78
2023-04-18T01:08:35.937Z,3.83
2023-04-18T01:09:07.348Z,4.72
2023-04-18T01:09:39.190Z,4.15
2023-04-18T01:10:10.759Z,3.92
2023-04-18T01:10:42.359Z,4.23
2023-04-18T01:11:13.738Z,4.53
2023-04-18T01:11:45.130Z,4.13
2023-04-18T01:12:16.504Z,4.75
2023-04-18T01:12:47.896Z,4.78
2023-04-18T01:13:19.921Z,4.45
2023-04-18T01:14:01.327Z,3.95
2023-04-18T01:14:32.689Z,4.40
2023-04-18T01:15:05.186Z,4.90
2023-04-18T01:15:36.592Z,5.18
2023-04-18T01:16:07.998Z,4.30
2023-04-18T01:16:39.391Z,4.22
2023-04-18T01:17:10.792Z,4.53
2023-04-18T01:17:42.217Z,4.20
2023-04-18T01:18:13.621Z,4.38
2023-04-18T01:18:44.973Z,5.00
2023-04-18T01:19:16.488Z,4.47
2023-04-18T01:19:47.863Z,4.95
2023-04-18T01:20:21.074Z,4.78
2023-04-18T01:20:53.178Z,4.40
2023-04-18T01:21:24.612Z,4.57
2023-04-18T01:21:56.001Z,4.53
2023-04-18T01:22:28.453Z,4.15
2023-04-18T01:22:59.898Z,5.50
2023-04-18T01:23:31.374Z,5.10
2023-04-18T01:24:20.989Z,4.60
2023-04-18T01:24:52.346Z,4.78
2023-04-18T01:25:23.714Z,4.55
2023-04-18T01:25:55.055Z,4.70
2023-04-18T01:26:26.972Z,4.27
2023-04-18T01:26:58.730Z,5.25
2023-04-18T01:27:30.105Z,5.40
2023-04-18T01:28:01.547Z,5.30
2023-04-18T01:28:36.237Z,4.82
2023-04-18T01:29:07.620Z,4.97
2023-04-18T01:29:39.118Z,4.25
2023-04-18T01:30:10.775Z,4.30
2023-04-18T01:30:42.138Z,4.82
2023-04-18T01:31:13.557Z,5.05
2023-04-18T01:31:45.014Z,4.68
2023-04-18T01:32:16.454Z,4.97
2023-04-18T01:32:47.915Z,5.03
2023-04-18T01:33:19.280Z,5.15
2023-04-18T01:33:50.638Z,4.88
2023-04-18T01:34:22.032Z,5.97
2023-04-18T01:34:53.391Z,4.30
2023-04-18T01:35:24.814Z,5.22
2023-04-18T01:35:56.168Z,4.83
2023-04-18T01:36:27.598Z,5.65
2023-04-18T01:36:59.006Z,4.40
2023-04-18T01:37:31.586Z,4.50
2023-04-18T01:38:02.937Z,4.72
2023-04-18T01:38:34.320Z,4.85
2023-04-18T01:39:05.695Z,4.95
2023-04-18T01:39:37.063Z,4.78
2023-04-18T01:40:08.734Z,4.70
2023-04-18T01:40:40.126Z,4.70
2023-04-18T01:41:11.540Z,5.03
2023-04-18T01:41:42.898Z,4.82
2023-04-18T01:42:14.242Z,5.00
2023-04-18T01:42:45.623Z,4.82
2023-04-18T01:43:17.011Z,4.38
2023-04-18T01:43:48.381Z,5.15
2023-04-18T01:44:19.804Z,4.90
2023-04-18T01:44:51.178Z,4.60
2023-04-18T01:45:22.636Z,5.05
2023-04-18T01:45:54.003Z,5.07
2023-04-18T01:46:25.430Z,4.73
2023-04-18T01:46:56.884Z,4.90
2023-04-18T01:47:28.349Z,4.43
2023-04-18T01:47:59.793Z,4.60
2023-04-18T01:48:31.264Z,5.00
2023-04-18T01:49:02.692Z,4.70
2023-04-18T01:49:34.060Z,4.72
2023-04-18T01:50:05.735Z,5.05
2023-04-18T01:50:37.108Z,4.68
2023-04-18T01:51:08.620Z,5.30
2023-04-18T01:51:39.999Z,4.97
2023-04-18T01:52:11.339Z,5.13
2023-04-18T01:52:42.748Z,5.93
2023-04-18T01:53:14.186Z,5.25
2023-04-18T01:53:45.535Z,5.97
2023-04-18T01:54:16.960Z,6.28
2023-04-18T01:54:48.498Z,5.25
2023-04-18T01:55:19.905Z,5.28
2023-04-18T01:55:51.269Z,4.57
2023-04-18T01:56:22.631Z,5.63
2023-04-18T01:56:54.021Z,5.28
2023-04-18T01:57:25.372Z,4.72
2023-04-18T01:57:56.757Z,5.43
2023-04-18T01:58:28.367Z,4.73
2023-04-18T01:58:59.736Z,5.00
2023-04-18T01:59:31.094Z,5.05
2023-04-18T02:00:03.948Z,4.53
2023-04-18T02:00:35.304Z,5.28
2023-04-18T02:01:06.712Z,5.68
2023-04-18T02:01:38.067Z,5.05
2023-04-18T02:02:09.557Z,5.07
2023-04-18T02:02:41.140Z,4.70
2023-04-18T02:03:12.714Z,4.80
2023-04-18T02:03:44.393Z,5.30
2023-04-18T02:04:16.195Z,4.80
2023-04-18T02:04:47.846Z,5.35
2023-04-18T02:05:19.221Z,5.55
2023-04-18T02:05:50.686Z,5.32
2023-04-18T02:06:22.105Z,5.40
2023-04-18T02:06:53.468Z,5.43
2023-04-18T02:07:24.823Z,4.75
2023-04-18T02:07:56.203Z,4.88
2023-04-18T02:08:27.589Z,4.70
2023-04-18T02:08:58.988Z,4.97
2023-04-18T02:09:30.385Z,4.93
2023-04-18T02:10:02.681Z,5.47
2023-04-18T02:10:34.070Z,5.18
2023-04-18T02:11:05.563Z,5.88
2023-04-18T02:11:36.952Z,4.80
2023-04-18T02:12:08.297Z,4.88
2023-04-18T02:12:39.658Z,5.05
2023-04-18T02:13:11.047Z,5.07
2023-04-18T02:13:42.416Z,5.60
2023-04-18T02:14:13.977Z,5.80
2023-04-18T02:14:45.420Z,5.88
2023-04-18T02:15:16.785Z,5.68
2023-04-18T02:15:48.173Z,5.38
2023-04-18T02:16:19.568Z,5.53
2023-04-18T02:16:51.075Z,5.55
2023-04-18T02:17:22.982Z,5.00
2023-04-18T02:17:54.428Z,5.55
2023-04-18T02:18:25.935Z,5.38
2023-04-18T02:18:57.288Z,5.32
2023-04-18T02:19:29.585Z,5.00
2023-04-18T02:20:00.952Z,5.10
2023-04-18T02:20:32.451Z,5.25
2023-04-18T02:21:03.935Z,5.50
2023-04-18T02:21:35.291Z,6.40
2023-04-18T02:22:06.665Z,6.80
2023-04-18T02:22:38.010Z,6.30
2023-04-18T02:23:09.374Z,5.80
2023-04-18T02:23:40.724Z,6.25
2023-04-18T02:24:12.218Z,5.35
2023-04-18T02:24:43.730Z,5.90
2023-04-18T02:25:15.122Z,5.20
2023-04-18T02:25:46.498Z,5.82
2023-04-18T02:26:17.890Z,6.57
2023-04-18T02:26:49.241Z,6.15
2023-04-18T02:27:20.623Z,5.40
2023-04-18T02:27:52.020Z,6.73
2023-04-18T02:28:23.385Z,6.00
2023-04-18T02:28:54.717Z,6.38
2023-04-18T02:29:26.062Z,6.05
2023-04-18T02:29:57.463Z,6.00
2023-04-18T02:30:28.851Z,6.65
2023-04-18T02:31:00.268Z,6.93
2023-04-18T02:31:31.670Z,6.47
2023-04-18T02:32:03.176Z,6.85
2023-04-18T02:32:34.663Z,5.65
2023-04-18T02:33:06.053Z,6.00
2023-04-18T02:33:37.447Z,5.63
2023-04-18T02:34:08.809Z,6.57
2023-04-18T02:34:40.210Z,6.65
2023-04-18T02:35:11.614Z,7.20
2023-04-18T02:35:42.921Z,6.80
2023-04-18T02:36:14.299Z,6.68
2023-04-18T02:36:46.708Z,6.75
2023-04-18T02:37:18.075Z,7.93
2023-04-18T02:37:49.574Z,7.05
2023-04-18T02:38:20.930Z,7.97
2023-04-18T02:38:52.274Z,8.80
2023-04-18T02:39:23.601Z,8.73
2023-04-18T02:39:54.947Z,8.68
2023-04-18T02:40:26.332Z,8.43
2023-04-18T02:40:57.672Z,9.05
2023-04-18T02:41:29.041Z,8.98
2023-04-18T02:42:00.391Z,9.07
2023-04-18T02:42:31.820Z,8.35
2023-04-18T02:43:03.201Z,9.18
2023-04-18T02:43:34.563Z,8.75
2023-04-18T02:44:06.233Z,8.82
2023-04-18T02:44:37.605Z,9.50
2023-04-18T02:45:09.140Z,9.63
2023-04-18T02:45:40.582Z,9.65
2023-04-18T02:46:12.145Z,9.00
2023-04-18T02:46:43.532Z,9.45
2023-04-18T02:47:14.898Z,10.10
2023-04-18T02:47:54.699Z,8.85
2023-04-18T02:48:27.243Z,9.63
2023-04-18T02:48:58.714Z,8.88
2023-04-18T02:49:30.127Z,9.95
2023-04-18T02:50:01.972Z,9.48
2023-04-18T02:50:33.364Z,8.55
2023-04-18T02:51:05.662Z,9.60
2023-04-18T02:51:37.057Z,9.55
2023-04-18T02:52:08.412Z,8.95
2023-04-18T02:52:39.768Z,8.77
2023-04-18T02:53:11.146Z,9.63
2023-04-18T02:53:42.511Z,9.18
2023-04-18T02:54:13.990Z,9.27
2023-04-18T02:54:45.609Z,8.80
2023-04-18T02:55:17.055Z,9.18
2023-04-18T02:55:48.409Z,8.93
2023-04-18T02:56:19.788Z,8.80
2023-04-18T02:56:54.182Z,8.75
2023-04-18T02:57:25.548Z,9.45
2023-04-18T02:57:57.074Z,8.57
2023-04-18T02:58:28.481Z,8.37
2023-04-18T02:58:59.899Z,9.07
2023-04-18T02:59:31.333Z,9.43
2023-04-18T03:00:02.761Z,9.45
2023-04-18T03:00:34.417Z,9.25
2023-04-18T03:01:05.800Z,9.15
2023-04-18T03:01:37.494Z,9.88
2023-04-18T03:02:09.233Z,10.32
2023-04-18T03:02:40.670Z,9.55
2023-04-18T03:03:12.170Z,8.63
2023-04-18T03:03:43.542Z,9.18
2023-04-18T03:04:15.076Z,9.85
2023-04-18T03:04:46.589Z,7.88
2023-04-18T03:05:17.947Z,8.15
2023-04-18T03:05:49.298Z,8.77
2023-04-18T03:06:20.717Z,8.63
2023-04-18T03:06:52.104Z,9.02
2023-04-18T03:07:23.489Z,8.25
2023-04-18T03:07:54.817Z,8.55
2023-04-18T03:08:26.177Z,9.02
2023-04-18T03:08:57.527Z,8.48
2023-04-18T03:09:28.895Z,8.10
2023-04-18T03:10:00.325Z,8.93
2023-04-18T03:10:31.683Z,8.48
2023-04-18T03:11:03.015Z,8.02
2023-04-18T03:11:34.395Z,8.68
2023-04-18T03:12:05.879Z,8.60
2023-04-18T03:12:37.246Z,8.50
2023-04-18T03:13:08.681Z,8.27
2023-04-18T03:13:40.030Z,8.57
2023-04-18T03:14:11.666Z,8.38
2023-04-18T03:14:43.250Z,8.60
2023-04-18T03:15:14.586Z,8.88
2023-04-18T03:15:46.006Z,8.48
2023-04-18T03:16:17.680Z,8.60
2023-04-18T03:16:49.084Z,9.35
2023-04-18T03:17:20.565Z,8.80
2023-04-18T03:17:52.065Z,8.73
2023-04-18T03:18:23.468Z,9.43
2023-04-18T03:18:54.810Z,8.97
2023-04-18T03:19:26.127Z,9.00
2023-04-18T03:19:57.494Z,10.02
2023-04-18T03:20:28.882Z,9.63
2023-04-18T03:21:00.246Z,10.32
2023-04-18T03:21:31.622Z,9.30
2023-04-18T03:22:02.977Z,9.77
2023-04-18T03:22:34.326Z,9.63
2023-04-18T03:23:05.732Z,9.25
2023-04-18T03:23:37.311Z,8.48
2023-04-18T03:24:10.849Z,9.35
2023-04-18T03:24:43.354Z,9.27
2023-04-18T03:25:14.856Z,8.63
2023-04-18T03:25:46.346Z,8.90
2023-04-18T03:26:17.698Z,9.40
2023-04-18T03:26:49.183Z,9.20
2023-04-18T03:27:20.579Z,9.25
2023-04-18T03:27:51.964Z,9.20
2023-04-18T03:28:23.331Z,9.18
2023-04-18T03:28:54.724Z,9.68
2023-04-18T03:29:30.335Z,9.80
2023-04-18T03:30:02.020Z,9.35
2023-04-18T03:30:33.367Z,9.50
2023-04-18T03:31:04.881Z,9.43
2023-04-18T03:31:36.304Z,9.70
2023-04-18T03:32:07.672Z,9.50
2023-04-18T03:32:39.117Z,9.82
2023-04-18T03:33:10.609Z,10.07
2023-04-18T03:33:41.979Z,9.93
2023-04-18T03:34:13.524Z,10.63
2023-04-18T03:34:45.086Z,9.88
2023-04-18T03:35:16.468Z,10.23
2023-04-18T03:35:47.955Z,9.40
2023-04-18T03:36:19.358Z,9.60
2023-04-18T03:36:50.733Z,9.20
2023-04-18T03:37:22.065Z,10.30
2023-04-18T03:37:53.481Z,9.88
2023-04-18T03:38:24.896Z,9.80
2023-04-18T03:38:56.244Z,9.55
2023-04-18T03:39:27.593Z,9.60
2023-04-18T03:39:58.945Z,9.20
2023-04-18T03:40:30.337Z,8.95
2023-04-18T03:41:01.715Z,9.23
2023-04-18T03:41:33.090Z,9.97
2023-04-18T03:42:04.448Z,10.07
2023-04-18T03:42:35.813Z,9.52
2023-04-18T03:43:07.198Z,8.85
2023-04-18T03:43:38.577Z,9.52
2023-04-18T03:44:09.951Z,9.95
2023-04-18T03:44:41.306Z,9.35
2023-04-18T03:45:12.715Z,9.23
2023-04-18T03:45:44.402Z,9.30
2023-04-18T03:46:15.871Z,9.32
2023-04-18T03:46:47.318Z,9.30
2023-04-18T03:47:18.658Z,9.57
2023-04-18T03:47:50.046Z,9.35
2023-04-18T03:48:21.472Z,8.63
2023-04-18T03:48:52.849Z,8.95
2023-04-18T03:49:24.251Z,9.93
2023-04-18T03:49:55.599Z,9.73
2023-04-18T03:50:27.034Z,9.70
2023-04-18T03:50:58.391Z,10.43
2023-04-18T03:51:32.466Z,9.70
2023-04-18T03:52:05.962Z,8.95
2023-04-18T03:52:37.327Z,8.80
2023-04-18T03:53:08.728Z,8.50
2023-04-18T03:53:40.106Z,8.40
2023-04-18T03:54:11.693Z,8.45
2023-04-18T03:54:43.293Z,10.15
2023-04-18T03:55:14.726Z,12.93
2023-04-18T03:55:46.100Z,12.70
2023-04-18T03:56:17.524Z,11.52
2023-04-18T03:56:48.934Z,11.55
2023-04-18T03:57:20.323Z,11.10
2023-04-18T03:57:51.798Z,10.93
2023-04-18T03:58:23.297Z,11.53
2023-04-18T03:58:54.655Z,11.32
2023-04-18T03:59:29.024Z,11.00
2023-04-18T04:00:00.394Z,9.90
2023-04-18T04:00:31.805Z,10.32
2023-04-18T04:01:03.194Z,10.20
2023-04-18T04:01:34.585Z,10.07
2023-04-18T04:02:06.029Z,10.32
2023-04-18T04:02:37.578Z,10.32
2023-04-18T04:03:09.197Z,12.45
2023-04-18T04:03:40.817Z,10.10
2023-04-18T04:04:12.659Z,9.82
2023-04-18T04:04:44.362Z,8.80
2023-04-18T04:05:15.772Z,9.75
2023-04-18T04:05:47.285Z,9.18
2023-04-18T04:06:18.748Z,9.10
2023-04-18T04:06:50.129Z,9.50
2023-04-18T04:07:21.529Z,10.23
2023-04-18T04:07:52.946Z,10.13
2023-04-18T04:08:25.090Z,10.45
2023-04-18T04:08:57.911Z,9.82
2023-04-18T04:09:29.313Z,11.02
2023-04-18T04:10:00.686Z,9.23
2023-04-18T04:10:32.048Z,10.27
2023-04-18T04:11:03.389Z,11.43
2023-04-18T04:11:34.705Z,10.80
2023-04-18T04:12:06.141Z,10.00
2023-04-18T04:12:37.523Z,10.30
2023-04-18T04:13:08.989Z,9.93
2023-04-18T04:13:41.847Z,9.57
2023-04-18T04:14:13.504Z,8.90
2023-04-18T04:14:45.185Z,9.35
2023-04-18T04:15:16.617Z,9.23
2023-04-18T04:15:48.011Z,10.55
2023-04-18T04:16:19.569Z,10.30
2023-04-18T04:16:51.825Z,9.65
2023-04-18T04:17:23.254Z,10.15
2023-04-18T04:17:54.696Z,10.75
2023-04-18T04:18:26.160Z,10.35
2023-04-18T04:18:57.541Z,11.07
2023-04-18T04:19:28.932Z,11.48
2023-04-18T04:20:00.268Z,10.60
2023-04-18T04:20:32.764Z,10.88
2023-04-18T04:21:05.164Z,10.68
2023-04-18T04:21:36.564Z,11.23
2023-04-18T04:22:07.931Z,11.07
2023-04-18T04:22:39.268Z,10.73
2023-04-18T04:23:10.594Z,10.48
2023-04-18T04:23:42.013Z,10.77
2023-04-18T04:24:13.575Z,11.68
2023-04-18T04:24:45.219Z,12.10
2023-04-18T04:25:17.111Z,10.57
2023-04-18T04:25:48.483Z,9.77
2023-04-18T04:26:19.862Z,10.52
2023-04-18T04:26:51.254Z,9.45
2023-04-18T04:27:22.622Z,10.98
2023-04-18T04:27:54.474Z,10.82
2023-04-18T04:28:25.799Z,10.05
2023-04-18T04:28:57.148Z,10.05
2023-04-18T04:29:28.499Z,10.48
2023-04-18T04:29:59.855Z,9.80
2023-04-18T04:30:31.220Z,10.02
2023-04-18T04:31:02.615Z,9.52
2023-04-18T04:31:34.020Z,9.90
2023-04-18T04:32:05.935Z,10.88
2023-04-18T04:32:37.435Z,10.27
2023-04-18T04:33:08.783Z,10.02
2023-04-18T04:33:40.285Z,11.18
2023-04-18T04:34:11.804Z,11.82
2023-04-18T04:34:43.189Z,12.00
2023-04-18T04:35:14.663Z,11.87
2023-04-18T04:35:46.690Z,10.90
2023-04-18T04:36:18.855Z,12.43
2023-04-18T04:36:50.634Z,12.10
2023-04-18T04:37:21.986Z,11.70
2023-04-18T04:37:53.307Z,11.65
2023-04-18T04:38:24.671Z,11.10
2023-04-18T04:38:56.026Z,11.07
2023-04-18T04:39:27.369Z,11.48
2023-04-18T04:39:58.791Z,11.90
2023-04-18T04:40:30.169Z,10.98
2023-04-18T04:41:01.543Z,10.80
2023-04-18T04:41:32.935Z,10.75
2023-04-18T04:42:04.291Z,11.02
2023-04-18T04:42:35.746Z,11.30
2023-04-18T04:43:07.294Z,11.43
2023-04-18T04:43:38.651Z,9.90
2023-04-18T04:44:10.075Z,10.35
2023-04-18T04:44:41.483Z,10.38
2023-04-18T04:45:12.933Z,10.77
2023-04-18T04:45:44.291Z,11.35
2023-04-18T04:46:15.765Z,10.95
2023-04-18T04:46:47.150Z,11.25
2023-04-18T04:47:18.505Z,11.07
2023-04-18T04:47:49.918Z,9.50
2023-04-18T04:48:21.325Z,9.85
2023-04-18T04:48:52.693Z,10.23
2023-04-18T04:49:24.090Z,10.65
2023-04-18T04:49:55.446Z,10.35
2023-04-18T04:50:26.793Z,11.05
2023-04-18T04:50:58.789Z,10.87
2023-04-18T04:51:30.194Z,10.13
2023-04-18T04:52:02.089Z,11.13
2023-04-18T04:52:33.480Z,12.20
2023-04-18T04:53:05.181Z,11.18
2023-04-18T04:53:36.580Z,9.70
2023-04-18T04:54:07.930Z,9.30
2023-04-18T04:54:39.299Z,9.38
2023-04-18T04:55:10.668Z,9.38
2023-04-18T04:55:42.042Z,9.27
2023-04-18T04:56:13.493Z,9.20
2023-04-18T04:56:44.882Z,9.27
2023-04-18T04:57:16.234Z,10.07
2023-04-18T04:57:47.602Z,9.90
2023-04-18T04:58:19.327Z,9.77
2023-04-18T04:58:50.685Z,9.65
2023-04-18T04:59:22.072Z,9.75
2023-04-18T04:59:53.418Z,10.32
2023-04-18T05:00:25.130Z,9.50
2023-04-18T05:00:56.574Z,9.45
2023-04-18T05:01:28.092Z,10.38
2023-04-18T05:01:59.588Z,9.40
2023-04-18T05:02:31.156Z,9.97
2023-04-18T05:03:02.751Z,10.27
2023-04-18T05:03:34.607Z,9.50
2023-04-18T05:04:06.298Z,9.10
2023-04-18T05:04:37.911Z,9.57
2023-04-18T05:05:09.389Z,10.30
2023-04-18T05:05:40.739Z,9.90
2023-04-18T05:06:12.142Z,10.50
2023-04-18T05:06:43.505Z,9.77
2023-04-18T05:07:15.149Z,9.37
2023-04-18T05:07:46.693Z,9.15
2023-04-18T05:08:18.047Z,10.20
2023-04-18T05:08:50.123Z,8.55
2023-04-18T05:09:21.484Z,9.25
2023-04-18T05:09:52.833Z,9.27
2023-04-18T05:10:24.241Z,9.63
2023-04-18T05:10:55.659Z,9.38
2023-04-18T05:11:27.049Z,9.20
2023-04-18T05:11:58.381Z,9.05
2023-04-18T05:12:29.775Z,9.55
2023-04-18T05:13:01.121Z,9.10
2023-04-18T05:13:32.491Z,9.48
2023-04-18T05:14:03.839Z,10.38
2023-04-18T05:14:35.205Z,9.18
2023-04-18T05:15:06.791Z,9.88
2023-04-18T05:15:39.045Z,9.52
2023-04-18T05:16:10.869Z,8.90
2023-04-18T05:16:42.285Z,9.32
2023-04-18T05:17:13.688Z,9.13
2023-04-18T05:17:45.140Z,10.63
2023-04-18T05:18:16.530Z,10.05
2023-04-18T05:18:47.908Z,9.13
2023-04-18T05:19:19.279Z,9.57
2023-04-18T05:19:50.660Z,9.40
2023-04-18T05:20:22.058Z,8.93
2023-04-18T05:20:53.423Z,9.13
2023-04-18T05:21:24.815Z,8.73
2023-04-18T05:21:56.182Z,9.48
2023-04-18T05:22:27.561Z,9.45
2023-04-18T05:22:58.933Z,9.90
2023-04-18T05:23:30.335Z,9.65
2023-04-18T05:24:01.688Z,10.00
2023-04-18T05:24:33.103Z,9.55
2023-04-18T05:25:04.685Z,9.63
2023-04-18T05:25:36.605Z,9.20
2023-04-18T05:26:08.034Z,8.98
2023-04-18T05:26:39.396Z,9.80
2023-04-18T05:27:10.784Z,10.77
2023-04-18T05:27:42.802Z,10.10
2023-04-18T05:28:14.248Z,9.35
2023-04-18T05:28:45.613Z,9.47
2023-04-18T05:29:17.009Z,9.48
2023-04-18T05:29:48.423Z,9.63
2023-04-18T05:30:19.852Z,9.65
2023-04-18T05:30:51.243Z,9.75
2023-04-18T05:31:22.687Z,9.98
2023-04-18T05:31:54.044Z,10.25
2023-04-18T05:32:25.417Z,10.48
2023-04-18T05:32:56.855Z,9.43
2023-04-18T05:33:28.913Z,10.32
2023-04-18T05:34:00.315Z,8.43
2023-04-18T05:34:31.683Z,8.15
2023-04-18T05:35:03.109Z,9.10
2023-04-18T05:35:34.480Z,8.13
2023-04-18T05:36:06.054Z,8.68
2023-04-18T05:36:37.438Z,7.88
2023-04-18T05:37:08.786Z,8.88
2023-04-18T05:37:40.204Z,8.48
2023-04-18T05:38:11.535Z,7.93
2023-04-18T05:38:42.922Z,8.63
2023-04-18T05:39:14.419Z,8.93
2023-04-18T05:39:45.775Z,8.38
2023-04-18T05:40:17.150Z,7.57
2023-04-18T05:40:48.487Z,7.63
2023-04-18T05:41:19.880Z,6.60
2023-04-18T05:41:51.251Z,6.85
2023-04-18T05:42:22.615Z,7.15
2023-04-18T05:42:53.999Z,7.72
2023-04-18T05:43:25.420Z,7.50
2023-04-18T05:44:04.989Z,7.28
2023-04-18T05:44:37.215Z,7.72
2023-04-18T05:45:08.658Z,6.63
2023-04-18T05:45:40.017Z,6.82
2023-04-18T05:46:11.499Z,6.47
2023-04-18T05:46:42.938Z,5.80
2023-04-18T05:47:14.307Z,6.60
2023-04-18T05:47:45.671Z,6.78
2023-04-18T05:48:17.261Z,6.45
2023-04-18T05:48:48.594Z,6.38
2023-04-18T05:49:19.963Z,6.57
2023-04-18T05:49:51.344Z,6.72
2023-04-18T05:50:22.734Z,6.25
2023-04-18T05:50:54.119Z,6.38
2023-04-18T05:51:25.479Z,6.80
2023-04-18T05:51:56.825Z,6.88
2023-04-18T05:52:28.188Z,6.65
2023-04-18T05:52:59.574Z,6.60
2023-04-18T05:53:30.933Z,6.82
2023-04-18T05:54:02.360Z,6.80
2023-04-18T05:54:33.726Z,6.15
2023-04-18T05:55:06.043Z,6.65
2023-04-18T05:55:37.428Z,6.93
2023-04-18T05:56:08.797Z,7.03
2023-04-18T05:56:40.288Z,6.22
2023-04-18T05:57:11.677Z,7.07
2023-04-18T05:57:43.021Z,7.70
2023-04-18T05:58:14.994Z,6.45
2023-04-18T05:58:46.371Z,6.70
2023-04-18T05:59:17.722Z,5.53
2023-04-18T05:59:49.099Z,5.83
2023-04-18T06:00:20.549Z,7.03
2023-04-18T06:00:52.850Z,6.47
2023-04-18T06:01:24.190Z,6.15
2023-04-18T06:01:55.658Z,6.35
2023-04-18T06:02:27.137Z,6.53
2023-04-18T06:02:58.658Z,6.65
2023-04-18T06:03:30.309Z,6.45
2023-04-18T06:04:01.962Z,5.87
2023-04-18T06:04:33.646Z,6.15
2023-04-18T06:05:05.504Z,6.45
2023-04-18T06:05:37.288Z,6.43
2023-04-18T06:06:08.848Z,6.07
2023-04-18T06:06:40.254Z,5.25
2023-04-18T06:07:11.681Z,5.07
2023-04-18T06:07:43.089Z,5.40
2023-04-18T06:08:14.471Z,5.88
2023-04-18T06:08:45.909Z,6.75
2023-04-18T06:09:17.274Z,4.95
2023-04-18T06:09:48.846Z,7.15
2023-04-18T06:10:20.263Z,5.05
2023-04-18T06:10:51.618Z,5.75
2023-04-18T06:11:23.012Z,6.15
2023-04-18T06:11:54.368Z,5.70
2023-04-18T06:12:25.808Z,5.90
2023-04-18T06:12:57.199Z,6.88
2023-04-18T06:13:28.554Z,6.47
2023-04-18T06:13:59.900Z,6.03
2023-04-18T06:14:31.273Z,6.30
2023-04-18T06:15:02.775Z,5.90
2023-04-18T06:15:34.617Z,6.03
2023-04-18T06:16:06.288Z,7.20
2023-04-18T06:16:38.223Z,8.15
2023-04-18T06:17:09.705Z,7.30
2023-04-18T06:17:41.081Z,8.05
2023-04-18T06:18:12.485Z,7.17
2023-04-18T06:18:43.862Z,6.93
2023-04-18T06:19:15.271Z,5.95
2023-04-18T06:19:46.652Z,6.03
2023-04-18T06:20:18.042Z,6.22
2023-04-18T06:20:49.433Z,7.85
2023-04-18T06:21:21.173Z,5.82
2023-04-18T06:21:52.856Z,5.75
2023-04-18T06:22:24.247Z,6.57
2023-04-18T06:22:55.575Z,5.90
2023-04-18T06:23:26.933Z,6.10
2023-04-18T06:23:58.286Z,5.85
2023-04-18T06:24:31.217Z,5.07
2023-04-18T06:25:02.674Z,6.22
2023-04-18T06:25:34.099Z,6.53
2023-04-18T06:26:06.096Z,6.53
2023-04-18T06:26:37.498Z,5.30
2023-04-18T06:27:17.522Z,6.15
2023-04-18T06:27:55.705Z,6.18
2023-04-18T06:28:27.038Z,5.05
2023-04-18T06:28:58.451Z,6.15
2023-04-18T06:29:30.505Z,5.78
2023-04-18T06:30:02.071Z,6.30
2023-04-18T06:30:33.492Z,5.78
2023-04-18T06:31:04.944Z,5.82
2023-04-18T06:31:36.320Z,5.10
2023-04-18T06:32:07.696Z,5.35
2023-04-18T06:32:39.100Z,5.55
2023-04-18T06:33:10.466Z,5.30
2023-04-18T06:33:41.932Z,6.37
2023-04-18T06:34:13.642Z,6.28
2023-04-18T06:34:45.165Z,5.45
2023-04-18T06:35:16.533Z,4.93
2023-04-18T06:35:47.964Z,4.65
2023-04-18T06:36:19.551Z,5.88
2023-04-18T06:36:51.115Z,5.25
2023-04-18T06:37:22.527Z,4.88
2023-04-18T06:37:53.904Z,5.32
2023-04-18T06:38:25.287Z,5.47
2023-04-18T06:38:56.688Z,5.60
2023-04-18T06:39:28.054Z,5.93
2023-04-18T06:39:59.393Z,5.63
2023-04-18T06:40:30.821Z,5.72
2023-04-18T06:41:02.254Z,5.72
2023-04-18T06:41:33.715Z,5.25
2023-04-18T06:42:05.103Z,5.28
2023-04-18T06:42:36.486Z,5.50
2023-04-18T06:43:07.850Z,5.20
2023-04-18T06:43:40.000Z,5.55
2023-04-18T06:44:13.878Z,5.55
2023-04-18T06:44:45.434Z,4.70
2023-04-18T06:45:16.889Z,6.00
2023-04-18T06:45:48.330Z,5.47
2023-04-18T06:46:19.881Z,5.22
2023-04-18T06:46:51.329Z,4.63
2023-04-18T06:47:22.894Z,5.50
2023-04-18T06:47:54.355Z,6.07
2023-04-18T06:48:25.861Z,4.80
2023-04-18T06:48:57.363Z,5.45
2023-04-18T06:49:28.726Z,4.05
2023-04-18T06:50:00.143Z,5.20
2023-04-18T06:50:31.638Z,4.93
2023-04-18T06:51:03.082Z,4.47
2023-04-18T06:51:34.492Z,4.40
2023-04-18T06:52:07.782Z,4.78
2023-04-18T06:52:39.256Z,4.10
2023-04-18T06:53:10.616Z,4.70
2023-04-18T06:53:41.981Z,5.10
2023-04-18T06:54:13.447Z,4.18
2023-04-18T06:54:44.912Z,5.00
2023-04-18T06:55:16.304Z,5.15
2023-04-18T06:55:47.815Z,4.53
2023-04-18T06:56:19.738Z,4.85
2023-04-18T06:56:51.248Z,5.07
2023-04-18T06:57:22.595Z,4.97
2023-04-18T06:57:53.971Z,4.22
2023-04-18T06:58:25.350Z,4.60